sensor_id;sensor_type;location;lat;lon;timestamp;temperature;humidity
19258;DHT22;9763;48.780;9.212;2023-04-01T00:11:00;11.90;76.50
19258;DHT22;9763;48.780;9.212;2023-04-01T00:17:51;11.90;76.60
19258;DHT22;9763;48.780;9.212;2023-04-01T00:28:04;12.00;76.40
19258;DHT22;9763;48.780;9.212;2023-04-01T00:34:53;11.90;76.00
19258;DHT22;9763;48.780;9.212;2023-04-01T00:38:16;11.90;76.20
19258;DHT22;9763;48.780;9.212;2023-04-01T00:45:23;11.90;76.10
19258;DHT22;9763;48.780;9.212;2023-04-01T00:48:54;11.90;76.20
19258;DHT22;9763;48.780;9.212;2023-04-01T00:55:52;11.90;76.20
19258;DHT22;9763;48.780;9.212;2023-04-01T01:06:25;11.90;76.30
19258;DHT22;9763;48.780;9.212;2023-04-01T01:13:38;11.90;76.60
19258;DHT22;9763;48.780;9.212;2023-04-01T01:17:12;11.90;76.70
19258;DHT22;9763;48.780;9.212;2023-04-01T01:21:17;11.90;77.00
19258;DHT22;9763;48.780;9.212;2023-04-01T01:28:53;11.80;77.60
19258;DHT22;9763;48.780;9.212;2023-04-01T01:32:47;11.80;77.90
19258;DHT22;9763;48.780;9.212;2023-04-01T01:36:38;11.90;78.20
19258;DHT22;9763;48.780;9.212;2023-04-01T01:40:08;11.80;78.40
19258;DHT22;9763;48.780;9.212;2023-04-01T01:43:38;11.80;78.40
19258;DHT22;9763;48.780;9.212;2023-04-01T01:50:31;11.80;78.50
19258;DHT22;9763;48.780;9.212;2023-04-01T01:53:57;11.80;78.50
19258;DHT22;9763;48.780;9.212;2023-04-01T01:57:23;11.80;78.30
19258;DHT22;9763;48.780;9.212;2023-04-01T02:00:54;11.70;78.20
19258;DHT22;9763;48.780;9.212;2023-04-01T02:04:20;11.70;78.50
19258;DHT22;9763;48.780;9.212;2023-04-01T02:07:49;11.70;78.80
19258;DHT22;9763;48.780;9.212;2023-04-01T02:11:26;11.60;78.70
19258;DHT22;9763;48.780;9.212;2023-04-01T02:14:56;11.60;78.90
19258;DHT22;9763;48.780;9.212;2023-04-01T02:25:12;11.60;79.20
19258;DHT22;9763;48.780;9.212;2023-04-01T02:32:05;11.50;79.30
19258;DHT22;9763;48.780;9.212;2023-04-01T02:38:56;11.50;79.80
19258;DHT22;9763;48.780;9.212;2023-04-01T02:45:49;11.50;79.30
19258;DHT22;9763;48.780;9.212;2023-04-01T02:49:12;11.50;78.70
19258;DHT22;9763;48.780;9.212;2023-04-01T03:02:49;11.40;79.00
19258;DHT22;9763;48.780;9.212;2023-04-01T03:06:14;11.30;79.10
19258;DHT22;9763;48.780;9.212;2023-04-01T03:09:39;11.30;79.30
19258;DHT22;9763;48.780;9.212;2023-04-01T03:19:52;11.20;79.40
19258;DHT22;9763;48.780;9.212;2023-04-01T03:23:16;11.20;79.50
19258;DHT22;9763;48.780;9.212;2023-04-01T03:37:04;11.20;79.00
19258;DHT22;9763;48.780;9.212;2023-04-01T03:43:53;11.10;80.00
19258;DHT22;9763;48.780;9.212;2023-04-01T03:47:16;11.20;80.40
19258;DHT22;9763;48.780;9.212;2023-04-01T03:54:06;11.20;81.10
19258;DHT22;9763;48.780;9.212;2023-04-01T03:57:31;11.30;81.30
19258;DHT22;9763;48.780;9.212;2023-04-01T04:11:25;11.20;80.10
19258;DHT22;9763;48.780;9.212;2023-04-01T04:18:12;11.20;79.70
19258;DHT22;9763;48.780;9.212;2023-04-01T04:21:36;11.00;79.00
19258;DHT22;9763;48.780;9.212;2023-04-01T04:25:00;11.10;79.50
19258;DHT22;9763;48.780;9.212;2023-04-01T04:28:26;11.00;79.50
19258;DHT22;9763;48.780;9.212;2023-04-01T04:42:05;10.90;79.10
19258;DHT22;9763;48.780;9.212;2023-04-01T04:45:30;10.80;79.00
19258;DHT22;9763;48.780;9.212;2023-04-01T04:48:54;10.80;78.70
19258;DHT22;9763;48.780;9.212;2023-04-01T04:52:18;10.80;79.20
19258;DHT22;9763;48.780;9.212;2023-04-01T04:55:46;10.80;79.80
19258;DHT22;9763;48.780;9.212;2023-04-01T04:59:30;10.80;79.30
19258;DHT22;9763;48.780;9.212;2023-04-01T05:03:03;10.70;79.10
19258;DHT22;9763;48.780;9.212;2023-04-01T05:06:27;10.90;79.80
19258;DHT22;9763;48.780;9.212;2023-04-01T05:09:51;10.80;79.40
19258;DHT22;9763;48.780;9.212;2023-04-01T05:16:41;10.80;79.60
19258;DHT22;9763;48.780;9.212;2023-04-01T05:20:07;10.80;79.80
19258;DHT22;9763;48.780;9.212;2023-04-01T05:23:32;10.80;79.60
19258;DHT22;9763;48.780;9.212;2023-04-01T05:26:56;10.80;79.60
19258;DHT22;9763;48.780;9.212;2023-04-01T05:30:20;10.80;79.20
19258;DHT22;9763;48.780;9.212;2023-04-01T05:33:56;10.80;80.10
19258;DHT22;9763;48.780;9.212;2023-04-01T05:37:21;10.90;80.10
19258;DHT22;9763;48.780;9.212;2023-04-01T05:40:45;11.00;80.60
19258;DHT22;9763;48.780;9.212;2023-04-01T05:44:11;11.00;80.90
19258;DHT22;9763;48.780;9.212;2023-04-01T05:47:35;11.10;80.80
19258;DHT22;9763;48.780;9.212;2023-04-01T05:54:24;11.20;80.40
19258;DHT22;9763;48.780;9.212;2023-04-01T06:08:10;11.60;81.00
19258;DHT22;9763;48.780;9.212;2023-04-01T06:11:46;11.70;81.20
19258;DHT22;9763;48.780;9.212;2023-04-01T06:15:25;11.80;80.90
19258;DHT22;9763;48.780;9.212;2023-04-01T06:19:15;11.90;80.90
19258;DHT22;9763;48.780;9.212;2023-04-01T06:27:00;12.10;81.40
19258;DHT22;9763;48.780;9.212;2023-04-01T06:30:40;12.30;81.80
19258;DHT22;9763;48.780;9.212;2023-04-01T06:34:25;12.40;81.00
19258;DHT22;9763;48.780;9.212;2023-04-01T06:38:30;12.50;80.90
19258;DHT22;9763;48.780;9.212;2023-04-01T06:42:30;12.60;80.60
19258;DHT22;9763;48.780;9.212;2023-04-01T06:46:09;12.60;79.90
19258;DHT22;9763;48.780;9.212;2023-04-01T06:50:04;12.70;79.20
19258;DHT22;9763;48.780;9.212;2023-04-01T06:54:09;12.70;76.90
19258;DHT22;9763;48.780;9.212;2023-04-01T06:58:18;12.60;77.90
19258;DHT22;9763;48.780;9.212;2023-04-01T07:01:47;12.60;77.20
19258;DHT22;9763;48.780;9.212;2023-04-01T07:05:15;12.60;78.60
19258;DHT22;9763;48.780;9.212;2023-04-01T07:08:41;12.60;78.20
19258;DHT22;9763;48.780;9.212;2023-04-01T07:12:15;12.70;79.00
19258;DHT22;9763;48.780;9.212;2023-04-01T07:16:11;12.70;78.90
19258;DHT22;9763;48.780;9.212;2023-04-01T07:19:42;12.80;79.50
19258;DHT22;9763;48.780;9.212;2023-04-01T07:23:16;12.80;79.10
19258;DHT22;9763;48.780;9.212;2023-04-01T07:27:10;12.90;78.50
19258;DHT22;9763;48.780;9.212;2023-04-01T07:30:47;12.90;78.10
19258;DHT22;9763;48.780;9.212;2023-04-01T07:34:25;12.90;78.10
19258;DHT22;9763;48.780;9.212;2023-04-01T07:38:03;12.90;77.80
19258;DHT22;9763;48.780;9.212;2023-04-01T07:41:42;12.90;77.80
19258;DHT22;9763;48.780;9.212;2023-04-01T07:45:20;12.90;77.80
19258;DHT22;9763;48.780;9.212;2023-04-01T07:48:53;12.80;77.80
19258;DHT22;9763;48.780;9.212;2023-04-01T07:52:27;12.80;77.10
19258;DHT22;9763;48.780;9.212;2023-04-01T07:56:09;12.80;77.10
19258;DHT22;9763;48.780;9.212;2023-04-01T07:59:43;12.90;77.30
19258;DHT22;9763;48.780;9.212;2023-04-01T08:03:31;12.80;77.10
19258;DHT22;9763;48.780;9.212;2023-04-01T08:07:08;12.90;76.60
19258;DHT22;9763;48.780;9.212;2023-04-01T08:10:52;12.90;77.80
19258;DHT22;9763;48.780;9.212;2023-04-01T08:14:48;13.00;77.30
19258;DHT22;9763;48.780;9.212;2023-04-01T08:18:51;13.00;76.90
19258;DHT22;9763;48.780;9.212;2023-04-01T08:22:27;13.00;76.80
19258;DHT22;9763;48.780;9.212;2023-04-01T08:26:02;13.00;74.90
19258;DHT22;9763;48.780;9.212;2023-04-01T08:29:38;13.10;76.50
19258;DHT22;9763;48.780;9.212;2023-04-01T08:33:12;13.10;76.50
19258;DHT22;9763;48.780;9.212;2023-04-01T08:36:44;13.20;76.60
19258;DHT22;9763;48.780;9.212;2023-04-01T08:40:33;13.30;76.10
19258;DHT22;9763;48.780;9.212;2023-04-01T08:44:32;13.30;75.80
19258;DHT22;9763;48.780;9.212;2023-04-01T08:52:21;13.10;75.70
19258;DHT22;9763;48.780;9.212;2023-04-01T08:56:06;13.10;75.80
19258;DHT22;9763;48.780;9.212;2023-04-01T08:59:55;12.90;75.60
19258;DHT22;9763;48.780;9.212;2023-04-01T09:03:58;12.70;76.10
19258;DHT22;9763;48.780;9.212;2023-04-01T09:07:42;12.60;76.80
19258;DHT22;9763;48.780;9.212;2023-04-01T09:11:28;12.50;77.30
19258;DHT22;9763;48.780;9.212;2023-04-01T09:15:47;12.40;77.30
19258;DHT22;9763;48.780;9.212;2023-04-01T09:19:32;12.30;78.00
19258;DHT22;9763;48.780;9.212;2023-04-01T09:23:24;12.30;78.70
19258;DHT22;9763;48.780;9.212;2023-04-01T09:27:04;12.30;79.80
19258;DHT22;9763;48.780;9.212;2023-04-01T09:30:41;12.40;79.70
19258;DHT22;9763;48.780;9.212;2023-04-01T09:34:33;12.40;79.60
19258;DHT22;9763;48.780;9.212;2023-04-01T09:38:23;12.50;80.30
19258;DHT22;9763;48.780;9.212;2023-04-01T09:42:03;12.60;81.80
19258;DHT22;9763;48.780;9.212;2023-04-01T09:45:58;12.80;80.30
19258;DHT22;9763;48.780;9.212;2023-04-01T09:49:49;12.90;79.30
19258;DHT22;9763;48.780;9.212;2023-04-01T09:53:41;12.90;78.90
19258;DHT22;9763;48.780;9.212;2023-04-01T10:01:57;13.00;79.70
19258;DHT22;9763;48.780;9.212;2023-04-01T10:06:13;12.90;79.00
19258;DHT22;9763;48.780;9.212;2023-04-01T10:14:33;12.90;78.70
19258;DHT22;9763;48.780;9.212;2023-04-01T10:22:56;13.00;78.30
19258;DHT22;9763;48.780;9.212;2023-04-01T10:36:30;13.30;82.10
19258;DHT22;9763;48.780;9.212;2023-04-01T10:40:38;13.40;79.20
19258;DHT22;9763;48.780;9.212;2023-04-01T10:45:19;13.60;80.30
19258;DHT22;9763;48.780;9.212;2023-04-01T10:53:30;13.70;79.50
19258;DHT22;9763;48.780;9.212;2023-04-01T11:07:35;13.70;78.80
19258;DHT22;9763;48.780;9.212;2023-04-01T11:11:57;13.70;78.30
19258;DHT22;9763;48.780;9.212;2023-04-01T11:16:00;13.70;78.10
19258;DHT22;9763;48.780;9.212;2023-04-01T11:24:11;13.80;78.60
19258;DHT22;9763;48.780;9.212;2023-04-01T11:28:11;14.10;78.60
19258;DHT22;9763;48.780;9.212;2023-04-01T11:32:12;14.30;79.90
19258;DHT22;9763;48.780;9.212;2023-04-01T11:36:03;14.60;80.30
19258;DHT22;9763;48.780;9.212;2023-04-01T11:39:46;14.90;79.40
19258;DHT22;9763;48.780;9.212;2023-04-01T11:43:46;15.20;77.80
19258;DHT22;9763;48.780;9.212;2023-04-01T11:48:00;15.50;76.60
19258;DHT22;9763;48.780;9.212;2023-04-01T11:51:55;15.70;75.20
19258;DHT22;9763;48.780;9.212;2023-04-01T11:55:42;15.90;74.80
19258;DHT22;9763;48.780;9.212;2023-04-01T11:59:51;16.00;72.10
19258;DHT22;9763;48.780;9.212;2023-04-01T12:03:54;15.90;70.90
19258;DHT22;9763;48.780;9.212;2023-04-01T12:11:39;15.60;70.50
19258;DHT22;9763;48.780;9.212;2023-04-01T12:15:19;15.30;69.10
19258;DHT22;9763;48.780;9.212;2023-04-01T12:18:54;15.10;69.20
19258;DHT22;9763;48.780;9.212;2023-04-01T12:22:37;15.00;70.80
19258;DHT22;9763;48.780;9.212;2023-04-01T12:30:38;14.70;70.70
19258;DHT22;9763;48.780;9.212;2023-04-01T12:34:31;14.70;71.40
19258;DHT22;9763;48.780;9.212;2023-04-01T12:38:15;14.60;72.10
19258;DHT22;9763;48.780;9.212;2023-04-01T12:41:54;14.60;71.50
19258;DHT22;9763;48.780;9.212;2023-04-01T12:45:31;14.50;71.20
19258;DHT22;9763;48.780;9.212;2023-04-01T12:49:12;14.60;71.30
19258;DHT22;9763;48.780;9.212;2023-04-01T12:53:01;14.60;73.70
19258;DHT22;9763;48.780;9.212;2023-04-01T12:56:49;14.80;71.60
19258;DHT22;9763;48.780;9.212;2023-04-01T13:05:10;15.10;71.10
19258;DHT22;9763;48.780;9.212;2023-04-01T13:08:49;15.10;70.30
19258;DHT22;9763;48.780;9.212;2023-04-01T13:12:35;15.20;71.00
19258;DHT22;9763;48.780;9.212;2023-04-01T13:16:10;15.20;70.00
19258;DHT22;9763;48.780;9.212;2023-04-01T13:19:41;15.10;68.30
19258;DHT22;9763;48.780;9.212;2023-04-01T13:23:46;15.10;68.30
19258;DHT22;9763;48.780;9.212;2023-04-01T13:27:22;15.00;66.80
19258;DHT22;9763;48.780;9.212;2023-04-01T13:30:56;14.90;67.90
19258;DHT22;9763;48.780;9.212;2023-04-01T13:34:35;14.80;69.10
19258;DHT22;9763;48.780;9.212;2023-04-01T13:42:25;14.90;70.30
19258;DHT22;9763;48.780;9.212;2023-04-01T13:50:26;14.90;68.20
19258;DHT22;9763;48.780;9.212;2023-04-01T13:58:29;15.00;67.40
19258;DHT22;9763;48.780;9.212;2023-04-01T14:02:20;14.90;66.60
19258;DHT22;9763;48.780;9.212;2023-04-01T14:06:01;14.90;67.90
19258;DHT22;9763;48.780;9.212;2023-04-01T14:09:40;14.90;68.20
19258;DHT22;9763;48.780;9.212;2023-04-01T14:13:37;15.00;65.70
19258;DHT22;9763;48.780;9.212;2023-04-01T14:17:16;14.90;65.70
19258;DHT22;9763;48.780;9.212;2023-04-01T14:25:20;14.90;66.40
19258;DHT22;9763;48.780;9.212;2023-04-01T14:29:07;14.80;66.40
19258;DHT22;9763;48.780;9.212;2023-04-01T14:32:46;14.80;65.60
19258;DHT22;9763;48.780;9.212;2023-04-01T14:40:28;14.60;67.80
19258;DHT22;9763;48.780;9.212;2023-04-01T14:48:07;14.50;67.50
19258;DHT22;9763;48.780;9.212;2023-04-01T14:51:46;14.40;67.70
19258;DHT22;9763;48.780;9.212;2023-04-01T14:55:28;14.30;68.60
19258;DHT22;9763;48.780;9.212;2023-04-01T14:58:57;14.30;69.30
19258;DHT22;9763;48.780;9.212;2023-04-01T15:02:46;14.30;69.40
19258;DHT22;9763;48.780;9.212;2023-04-01T15:06:39;14.30;68.10
19258;DHT22;9763;48.780;9.212;2023-04-01T15:10:49;14.20;68.90
19258;DHT22;9763;48.780;9.212;2023-04-01T15:14:39;14.20;69.30
19258;DHT22;9763;48.780;9.212;2023-04-01T15:18:24;14.30;69.40
19258;DHT22;9763;48.780;9.212;2023-04-01T15:22:27;14.30;70.10
19258;DHT22;9763;48.780;9.212;2023-04-01T15:26:19;14.20;69.70
19258;DHT22;9763;48.780;9.212;2023-04-01T15:30:27;14.30;69.00
19258;DHT22;9763;48.780;9.212;2023-04-01T15:37:53;14.20;68.50
19258;DHT22;9763;48.780;9.212;2023-04-01T15:41:23;14.20;69.30
19258;DHT22;9763;48.780;9.212;2023-04-01T15:44:58;14.20;68.80
19258;DHT22;9763;48.780;9.212;2023-04-01T15:48:42;14.20;69.60
19258;DHT22;9763;48.780;9.212;2023-04-01T15:52:19;14.20;67.90
19258;DHT22;9763;48.780;9.212;2023-04-01T15:55:50;14.10;69.20
19258;DHT22;9763;48.780;9.212;2023-04-01T15:59:31;14.10;69.00
19258;DHT22;9763;48.780;9.212;2023-04-01T16:03:27;14.10;68.40
19258;DHT22;9763;48.780;9.212;2023-04-01T16:07:03;14.00;67.60
19258;DHT22;9763;48.780;9.212;2023-04-01T16:10:58;14.00;68.70
19258;DHT22;9763;48.780;9.212;2023-04-01T16:14:41;14.00;67.80
19258;DHT22;9763;48.780;9.212;2023-04-01T16:22:12;13.90;68.40
19258;DHT22;9763;48.780;9.212;2023-04-01T16:25:43;13.90;69.00
19258;DHT22;9763;48.780;9.212;2023-04-01T16:29:20;13.90;67.60
19258;DHT22;9763;48.780;9.212;2023-04-01T16:32:54;13.80;67.80
19258;DHT22;9763;48.780;9.212;2023-04-01T16:36:28;13.80;68.00
19258;DHT22;9763;48.780;9.212;2023-04-01T16:40:09;13.80;68.70
19258;DHT22;9763;48.780;9.212;2023-04-01T16:43:44;13.80;68.50
19258;DHT22;9763;48.780;9.212;2023-04-01T16:47:12;13.70;68.70
19258;DHT22;9763;48.780;9.212;2023-04-01T16:50:48;13.70;69.00
19258;DHT22;9763;48.780;9.212;2023-04-01T16:54:28;13.70;69.60
19258;DHT22;9763;48.780;9.212;2023-04-01T16:57:57;13.70;69.80
19258;DHT22;9763;48.780;9.212;2023-04-01T17:01:27;13.70;70.00
19258;DHT22;9763;48.780;9.212;2023-04-01T17:05:02;13.70;70.30
19258;DHT22;9763;48.780;9.212;2023-04-01T17:08:40;13.80;70.50
19258;DHT22;9763;48.780;9.212;2023-04-01T17:12:20;13.70;70.20
19258;DHT22;9763;48.780;9.212;2023-04-01T17:15:55;13.70;70.20
19258;DHT22;9763;48.780;9.212;2023-04-01T17:19:40;17.00;73.90
19258;DHT22;9763;48.780;9.212;2023-04-01T17:23:18;13.70;70.10
19258;DHT22;9763;48.780;9.212;2023-04-01T17:26:49;13.70;69.90
19258;DHT22;9763;48.780;9.212;2023-04-01T17:30:26;13.70;70.40
19258;DHT22;9763;48.780;9.212;2023-04-01T17:34:23;13.70;70.40
19258;DHT22;9763;48.780;9.212;2023-04-01T17:38:06;13.70;70.20
19258;DHT22;9763;48.780;9.212;2023-04-01T17:41:46;13.70;70.30
19258;DHT22;9763;48.780;9.212;2023-04-01T17:45:21;13.70;70.40
19258;DHT22;9763;48.780;9.212;2023-04-01T17:48:53;13.60;70.60
19258;DHT22;9763;48.780;9.212;2023-04-01T17:52:31;13.60;70.80
19258;DHT22;9763;48.780;9.212;2023-04-01T17:56:09;13.70;70.80
19258;DHT22;9763;48.780;9.212;2023-04-01T17:59:39;13.70;71.10
19258;DHT22;9763;48.780;9.212;2023-04-01T18:03:18;13.60;71.10
19258;DHT22;9763;48.780;9.212;2023-04-01T18:07:07;13.60;71.30
19258;DHT22;9763;48.780;9.212;2023-04-01T18:10:52;13.60;71.10
19258;DHT22;9763;48.780;9.212;2023-04-01T18:14:31;13.60;71.50
19258;DHT22;9763;48.780;9.212;2023-04-01T18:18:24;13.60;71.70
19258;DHT22;9763;48.780;9.212;2023-04-01T18:22:05;13.50;71.70
19258;DHT22;9763;48.780;9.212;2023-04-01T18:25:35;13.50;71.80
19258;DHT22;9763;48.780;9.212;2023-04-01T18:29:12;13.40;71.90
19258;DHT22;9763;48.780;9.212;2023-04-01T18:32:50;13.40;72.00
19258;DHT22;9763;48.780;9.212;2023-04-01T18:36:24;13.40;72.00
19258;DHT22;9763;48.780;9.212;2023-04-01T18:40:03;13.30;71.70
19258;DHT22;9763;48.780;9.212;2023-04-01T18:43:45;13.30;71.80
19258;DHT22;9763;48.780;9.212;2023-04-01T18:47:26;13.20;71.70
19258;DHT22;9763;48.780;9.212;2023-04-01T18:51:02;11.40;69.50
19258;DHT22;9763;48.780;9.212;2023-04-01T18:54:42;13.10;70.90
19258;DHT22;9763;48.780;9.212;2023-04-01T18:58:18;13.00;70.60
19258;DHT22;9763;48.780;9.212;2023-04-01T19:01:57;12.90;70.60
19258;DHT22;9763;48.780;9.212;2023-04-01T19:05:31;12.80;70.40
19258;DHT22;9763;48.780;9.212;2023-04-01T19:09:12;12.60;69.80
19258;DHT22;9763;48.780;9.212;2023-04-01T19:12:43;12.60;70.10
19258;DHT22;9763;48.780;9.212;2023-04-01T19:16:25;12.40;69.80
19258;DHT22;9763;48.780;9.212;2023-04-01T19:20:05;12.40;69.90
19258;DHT22;9763;48.780;9.212;2023-04-01T19:28:22;12.20;70.40
19258;DHT22;9763;48.780;9.212;2023-04-01T19:32:04;12.10;70.40
19258;DHT22;9763;48.780;9.212;2023-04-01T19:35:41;12.00;70.60
19258;DHT22;9763;48.780;9.212;2023-04-01T19:39:24;12.00;70.70
19258;DHT22;9763;48.780;9.212;2023-04-01T19:43:02;11.90;70.70
19258;DHT22;9763;48.780;9.212;2023-04-01T19:46:33;11.90;71.20
19258;DHT22;9763;48.780;9.212;2023-04-01T19:50:06;11.90;71.40
19258;DHT22;9763;48.780;9.212;2023-04-01T19:53:49;11.90;71.80
19258;DHT22;9763;48.780;9.212;2023-04-01T19:57:27;11.90;71.80
19258;DHT22;9763;48.780;9.212;2023-04-01T20:01:00;11.90;71.70
19258;DHT22;9763;48.780;9.212;2023-04-01T20:04:30;11.90;71.80
19258;DHT22;9763;48.780;9.212;2023-04-01T20:08:05;11.90;71.80
19258;DHT22;9763;48.780;9.212;2023-04-01T20:11:45;12.00;72.10
19258;DHT22;9763;48.780;9.212;2023-04-01T20:15:29;12.00;72.30
19258;DHT22;9763;48.780;9.212;2023-04-01T20:19:00;12.00;72.50
19258;DHT22;9763;48.780;9.212;2023-04-01T20:22:37;12.10;72.40
19258;DHT22;9763;48.780;9.212;2023-04-01T20:26:20;12.10;72.50
19258;DHT22;9763;48.780;9.212;2023-04-01T20:30:00;12.10;72.40
19258;DHT22;9763;48.780;9.212;2023-04-01T20:41:12;12.20;72.30
19258;DHT22;9763;48.780;9.212;2023-04-01T20:44:52;12.20;72.60
19258;DHT22;9763;48.780;9.212;2023-04-01T20:48:46;12.20;72.60
19258;DHT22;9763;48.780;9.212;2023-04-01T21:07:34;12.20;72.90
19258;DHT22;9763;48.780;9.212;2023-04-01T21:14:54;12.30;72.50
19258;DHT22;9763;48.780;9.212;2023-04-01T21:18:57;12.30;72.50
19258;DHT22;9763;48.780;9.212;2023-04-01T21:22:40;12.30;72.80
19258;DHT22;9763;48.780;9.212;2023-04-01T21:26:24;12.20;72.80
19258;DHT22;9763;48.780;9.212;2023-04-01T21:30:02;12.20;72.60
19258;DHT22;9763;48.780;9.212;2023-04-01T21:33:59;12.20;72.60
19258;DHT22;9763;48.780;9.212;2023-04-01T21:38:01;12.20;72.40
19258;DHT22;9763;48.780;9.212;2023-04-01T21:45:49;12.20;72.60
19258;DHT22;9763;48.780;9.212;2023-04-01T21:49:47;12.20;72.60
19258;DHT22;9763;48.780;9.212;2023-04-01T22:03:13;12.10;71.80
19258;DHT22;9763;48.780;9.212;2023-04-01T22:10:26;12.10;72.20
19258;DHT22;9763;48.780;9.212;2023-04-01T22:14:01;12.00;72.00
19258;DHT22;9763;48.780;9.212;2023-04-01T22:21:05;11.90;71.80
19258;DHT22;9763;48.780;9.212;2023-04-01T22:24:43;11.90;71.80
19258;DHT22;9763;48.780;9.212;2023-04-01T22:28:20;11.90;71.80
19258;DHT22;9763;48.780;9.212;2023-04-01T22:31:54;11.80;71.90
19258;DHT22;9763;48.780;9.212;2023-04-01T22:35:32;11.80;72.00
19258;DHT22;9763;48.780;9.212;2023-04-01T22:39:12;11.80;72.10
19258;DHT22;9763;48.780;9.212;2023-04-01T22:46:26;11.80;72.40
19258;DHT22;9763;48.780;9.212;2023-04-01T22:50:09;11.80;72.40
19258;DHT22;9763;48.780;9.212;2023-04-01T22:53:50;9.20;71.10
19258;DHT22;9763;48.780;9.212;2023-04-01T22:57:37;11.90;72.60
19258;DHT22;9763;48.780;9.212;2023-04-01T23:01:07;11.90;72.70
19258;DHT22;9763;48.780;9.212;2023-04-01T23:04:39;11.90;72.70
19258;DHT22;9763;48.780;9.212;2023-04-01T23:08:35;11.90;72.70
19258;DHT22;9763;48.780;9.212;2023-04-01T23:12:26;11.90;72.70
19258;DHT22;9763;48.780;9.212;2023-04-01T23:15:53;11.90;72.60
19258;DHT22;9763;48.780;9.212;2023-04-01T23:19:19;11.90;72.50
19258;DHT22;9763;48.780;9.212;2023-04-01T23:22:58;11.90;72.40
19258;DHT22;9763;48.780;9.212;2023-04-01T23:26:38;11.80;72.50
19258;DHT22;9763;48.780;9.212;2023-04-01T23:30:49;11.80;72.70
19258;DHT22;9763;48.780;9.212;2023-04-01T23:34:23;11.80;72.80
19258;DHT22;9763;48.780;9.212;2023-04-01T23:37:48;11.90;73.00
19258;DHT22;9763;48.780;9.212;2023-04-01T23:41:18;11.90;73.00
19258;DHT22;9763;48.780;9.212;2023-04-01T23:44:45;11.90;73.10
19258;DHT22;9763;48.780;9.212;2023-04-01T23:48:15;11.90;72.90
19258;DHT22;9763;48.780;9.212;2023-04-01T23:51:51;11.90;72.90
19258;DHT22;9763;48.780;9.212;2023-04-01T23:55:19;11.90;72.90
19258;DHT22;9763;48.780;9.212;2023-04-01T23:58:49;11.90;72.90
